createdAt,value
2022-10-23T07:41:17.199Z,6.60
2022-10-23T07:46:20.654Z,6.10
2022-10-23T07:51:24.062Z,5.30
2022-10-23T07:56:32.187Z,7.70
2022-10-23T08:01:39.166Z,6.90
2022-10-23T08:06:42.810Z,7.60
2022-10-23T08:11:46.217Z,7.40
2022-10-23T08:16:49.590Z,7.20
2022-10-23T08:21:55.013Z,7.80
2022-10-23T08:26:59.017Z,6.50
2022-10-23T08:32:02.534Z,6.40
2022-10-23T08:37:06.001Z,6.90
2022-10-23T08:42:21.346Z,6.10
2022-10-23T08:47:43.189Z,6.00
2022-10-23T08:52:46.632Z,7.80
2022-10-23T08:58:06.298Z,12.80
2022-10-23T09:03:12.788Z,11.00
2022-10-23T09:08:27.975Z,9.70
2022-10-23T09:14:18.905Z,9.00
2022-10-23T09:19:28.214Z,8.70
2022-10-23T09:24:33.725Z,10.20
2022-10-23T09:29:37.050Z,9.20
2022-10-23T09:34:53.649Z,8.80
2022-10-23T09:40:30.021Z,10.60
2022-10-23T09:45:35.716Z,12.80
2022-10-23T09:50:55.108Z,13.00
2022-10-23T09:56:08.188Z,7.20
2022-10-23T10:01:48.171Z,6.50
2022-10-23T10:06:59.642Z,8.30
2022-10-23T10:12:47.671Z,8.30
2022-10-23T10:18:38.671Z,8.40
2022-10-23T10:23:56.142Z,8.20
2022-10-23T10:29:19.416Z,8.80
2022-10-23T10:35:03.488Z,8.60
2022-10-23T10:40:31.533Z,6.70
2022-10-23T10:45:49.025Z,10.50
2022-10-23T10:51:06.162Z,10.00
2022-10-23T10:56:16.242Z,7.70
2022-10-23T11:02:00.238Z,11.60
2022-10-23T11:07:11.705Z,10.20
2022-10-23T11:12:28.436Z,10.10
2022-10-23T11:17:41.101Z,9.20
2022-10-23T11:23:02.802Z,8.00
2022-10-23T11:28:43.796Z,10.60
2022-10-23T11:34:32.285Z,6.10
2022-10-23T11:39:39.900Z,9.30
2022-10-23T11:44:50.903Z,10.00
2022-10-23T11:50:09.367Z,10.30
2022-10-23T11:55:24.596Z,12.20
2022-10-23T12:00:31.048Z,8.00
2022-10-23T12:05:41.864Z,10.70
2022-10-23T12:10:53.059Z,11.10
2022-10-23T12:15:59.941Z,10.80
2022-10-23T12:21:05.473Z,8.10
2022-10-23T12:26:30.067Z,8.40
2022-10-23T12:31:47.818Z,10.60
2022-10-23T12:37:32.789Z,8.40
2022-10-23T12:42:38.166Z,8.30
2022-10-23T12:47:45.470Z,8.80
2022-10-23T12:53:04.653Z,9.40
2022-10-23T12:58:34.174Z,10.70
2022-10-23T13:03:39.525Z,8.40
2022-10-23T13:08:47.826Z,8.40
2022-10-23T13:13:51.383Z,9.20
2022-10-23T13:18:55.023Z,8.40
2022-10-23T13:23:58.622Z,9.50
2022-10-23T13:29:08.870Z,8.50
2022-10-23T13:34:28.646Z,8.60
2022-10-23T13:39:34.338Z,12.70
2022-10-23T13:44:38.342Z,9.10
2022-10-23T13:49:41.819Z,11.70
2022-10-23T13:54:45.137Z,8.90
2022-10-23T13:59:48.541Z,9.70
2022-10-23T14:04:52.862Z,8.20
2022-10-23T14:09:56.137Z,9.10
2022-10-23T14:14:59.395Z,9.00
2022-10-23T14:20:06.106Z,9.70
2022-10-23T14:25:10.258Z,9.00
2022-10-23T14:30:14.682Z,8.00
2022-10-23T14:35:18.056Z,8.30
2022-10-23T14:40:21.886Z,10.30
2022-10-23T14:45:25.165Z,8.70
2022-10-23T14:50:28.738Z,9.10
2022-10-23T14:55:32.035Z,9.60
2022-10-23T15:00:35.300Z,11.30
2022-10-23T15:05:43.150Z,13.20
2022-10-23T15:10:46.692Z,11.80
2022-10-23T15:15:50.179Z,12.20
2022-10-23T15:20:53.802Z,13.50
2022-10-23T15:26:03.458Z,10.60
2022-10-23T15:31:06.822Z,13.60
2022-10-23T15:36:10.125Z,13.70
2022-10-23T15:41:22.807Z,14.50
2022-10-23T15:46:26.440Z,12.50
2022-10-23T15:51:29.739Z,16.00
2022-10-23T15:56:34.600Z,20.20
2022-10-23T16:01:38.137Z,19.40
2022-10-23T16:06:42.649Z,17.30
2022-10-23T16:11:45.960Z,18.80
2022-10-23T16:16:49.274Z,18.30
2022-10-23T16:21:52.582Z,15.10
2022-10-23T16:26:57.839Z,13.30
2022-10-23T16:32:01.187Z,11.90
2022-10-23T16:37:04.564Z,11.90
2022-10-23T16:42:08.025Z,9.70
2022-10-23T16:47:11.392Z,13.10
2022-10-23T16:52:14.911Z,9.60
2022-10-23T16:57:18.207Z,10.20
2022-10-23T17:02:21.689Z,11.10
2022-10-23T17:07:25.247Z,13.20
2022-10-23T17:12:28.660Z,12.00
2022-10-23T17:17:31.915Z,11.70
2022-10-23T17:22:36.215Z,9.80
2022-10-23T17:27:39.507Z,10.50
2022-10-23T17:32:43.053Z,11.80
2022-10-23T17:37:46.568Z,10.50
2022-10-23T17:42:49.871Z,11.80
2022-10-23T17:47:53.593Z,13.70
2022-10-23T17:52:56.846Z,16.40
2022-10-23T17:58:00.398Z,14.50
2022-10-23T18:03:05.332Z,13.80
2022-10-23T18:08:08.676Z,12.60
2022-10-23T18:13:12.001Z,11.30
2022-10-23T18:18:15.357Z,12.20
2022-10-23T18:23:18.718Z,10.80
2022-10-23T18:28:22.579Z,12.40
2022-10-23T18:33:26.798Z,11.20
2022-10-23T18:38:33.257Z,15.00
2022-10-23T18:43:43.785Z,12.60
2022-10-23T18:48:51.040Z,14.70
2022-10-23T18:53:54.781Z,13.80
2022-10-23T18:59:02.066Z,14.00
2022-10-23T19:04:06.023Z,14.30
2022-10-23T19:09:12.346Z,12.30
2022-10-23T19:14:15.895Z,13.20
2022-10-23T19:19:24.857Z,14.40
2022-10-23T19:24:44.128Z,12.50
2022-10-23T19:29:50.816Z,13.80
2022-10-23T19:34:54.210Z,12.30
2022-10-23T19:39:57.749Z,15.80
2022-10-23T19:45:01.365Z,13.90
2022-10-23T19:50:07.353Z,12.80
2022-10-23T19:55:11.505Z,13.00
2022-10-23T20:00:15.446Z,16.10
2022-10-23T20:05:18.810Z,11.50
2022-10-23T20:10:22.533Z,14.70
2022-10-23T20:15:25.786Z,14.50
2022-10-23T20:20:29.157Z,14.00
2022-10-23T20:25:32.381Z,11.60
2022-10-23T20:30:42.708Z,11.20
2022-10-23T20:35:46.093Z,12.30
2022-10-23T20:40:49.652Z,14.30
2022-10-23T20:45:53.301Z,13.00
2022-10-23T20:50:56.614Z,13.70
2022-10-23T20:56:00.038Z,14.40
2022-10-23T21:01:09.968Z,16.20
2022-10-23T21:06:16.257Z,15.20
2022-10-23T21:11:19.593Z,15.20
2022-10-23T21:16:30.068Z,14.30
2022-10-23T21:21:33.670Z,13.30
2022-10-23T21:26:37.257Z,14.00
2022-10-23T21:31:40.702Z,13.30
2022-10-23T21:37:07.488Z,15.30
2022-10-23T21:42:10.414Z,14.90
2022-10-23T21:47:14.017Z,12.50
2022-10-23T21:52:19.068Z,11.50
2022-10-23T21:57:23.270Z,12.00
2022-10-23T22:02:27.289Z,11.20
2022-10-23T22:07:30.713Z,12.60
2022-10-23T22:12:34.043Z,11.20
2022-10-23T22:17:37.333Z,10.90
2022-10-23T22:22:40.593Z,12.80
2022-10-23T22:27:44.022Z,12.80
2022-10-23T22:32:47.600Z,10.30
2022-10-23T22:37:51.096Z,10.00
2022-10-23T22:42:54.401Z,10.50
2022-10-23T22:47:57.762Z,9.80
2022-10-23T22:53:01.088Z,9.70
2022-10-23T22:58:04.390Z,9.70
2022-10-23T23:03:08.444Z,10.10
2022-10-23T23:08:13.741Z,9.80
2022-10-23T23:13:17.040Z,10.10
2022-10-23T23:18:21.682Z,10.90
2022-10-23T23:23:24.993Z,11.00
2022-10-23T23:28:28.340Z,10.10
2022-10-23T23:33:31.718Z,11.00
2022-10-23T23:38:37.485Z,10.50
2022-10-23T23:43:42.433Z,7.10
2022-10-23T23:48:48.812Z,9.50
2022-10-23T23:53:52.803Z,8.50
2022-10-23T23:58:58.040Z,8.30
